GMMI

Details ICAO GMMI (ESU)
Name MOGADOR INTL
Region Morocco
Timezone Africa/Casablanca (UTC+0.0)
Plans Departing 20
Arriving 23
Stats Elevation 384 ft / 117 m (AMSL)
Location 31.397091° -9.682044°
Runways 1
Magnetic Variation 2.530° W
Sunrise 2017-12-11 07:29:10 UTC / 2017-12-11 07:29:10 Local
Sunset 2017-12-11 17:37:44 UTC / 2017-12-11 17:37:44 Local
Advertisement - Login to hide

Runways

ID Width Length Bearing (true) Bearing (mag) Surface Threshold Offset Overrun Length
16 148 ft / 45 m 6,868 ft / 2,093 m 158.80° 161.33° Asphalt 0 ft / 0 m 0 ft / 0 m
34 148 ft / 45 m 6,868 ft / 2,093 m 338.80° 341.33° Asphalt 0 ft / 0 m 0 ft / 0 m

Map

Weather


0- 5 10 15 20 25 30 35+ Temperature / ° C

Clouds and Precipitation
Forecast for 2017-12-11 06:00 UTC. Updated an hour ago

Ground ~20,000 ft ~40,000 ft Winds

METAR

Not found

TAF

TAF GMMI 102300Z 1100/1206 18007KT 7000 NSC BECMG 1105/1109 BKN013 SCT020 TEMPO 1106/1124 3000 RA

Frequencies

Tower 121.20 MHz TWR
Warning: Do not use this data for real-world aviation or navigation. No guarantee of current accuracy is given.